sensor_id;sensor_type;location;lat;lon;timestamp;temperature;humidity
1468;DHT22;727;48.892;9.544;2023-07-29T00:02:12;17.40;99.90
1468;DHT22;727;48.892;9.544;2023-07-29T00:04:39;17.30;99.90
1468;DHT22;727;48.892;9.544;2023-07-29T00:07:07;17.30;99.90
1468;DHT22;727;48.892;9.544;2023-07-29T00:09:34;17.30;99.90
1468;DHT22;727;48.892;9.544;2023-07-29T00:12:00;17.20;99.90
1468;DHT22;727;48.892;9.544;2023-07-29T00:14:27;17.10;99.90
1468;DHT22;727;48.892;9.544;2023-07-29T00:16:54;17.10;99.90
1468;DHT22;727;48.892;9.544;2023-07-29T00:19:21;17.10;99.90
1468;DHT22;727;48.892;9.544;2023-07-29T00:21:49;17.10;99.90
1468;DHT22;727;48.892;9.544;2023-07-29T00:24:17;17.00;99.90
1468;DHT22;727;48.892;9.544;2023-07-29T00:26:43;17.10;99.90
1468;DHT22;727;48.892;9.544;2023-07-29T00:29:14;17.10;99.90
1468;DHT22;727;48.892;9.544;2023-07-29T00:31:41;17.10;99.90
1468;DHT22;727;48.892;9.544;2023-07-29T00:34:07;17.10;99.90
1468;DHT22;727;48.892;9.544;2023-07-29T00:36:34;17.20;99.90
1468;DHT22;727;48.892;9.544;2023-07-29T00:39:01;17.20;99.90
1468;DHT22;727;48.892;9.544;2023-07-29T00:41:29;17.20;99.90
1468;DHT22;727;48.892;9.544;2023-07-29T00:43:56;17.20;99.90
1468;DHT22;727;48.892;9.544;2023-07-29T00:46:23;17.30;99.90
1468;DHT22;727;48.892;9.544;2023-07-29T00:48:50;17.20;99.90
1468;DHT22;727;48.892;9.544;2023-07-29T00:51:17;17.20;99.90
1468;DHT22;727;48.892;9.544;2023-07-29T00:53:44;17.20;99.90
1468;DHT22;727;48.892;9.544;2023-07-29T00:56:11;17.20;99.90
1468;DHT22;727;48.892;9.544;2023-07-29T00:58:39;17.10;99.90
1468;DHT22;727;48.892;9.544;2023-07-29T01:01:06;17.10;99.90
1468;DHT22;727;48.892;9.544;2023-07-29T01:03:33;17.10;99.90
1468;DHT22;727;48.892;9.544;2023-07-29T01:06:11;17.10;99.90
1468;DHT22;727;48.892;9.544;2023-07-29T01:08:47;17.10;99.90
1468;DHT22;727;48.892;9.544;2023-07-29T01:11:25;17.10;99.90
1468;DHT22;727;48.892;9.544;2023-07-29T01:14:00;17.10;99.90
1468;DHT22;727;48.892;9.544;2023-07-29T01:16:32;17.00;99.90
1468;DHT22;727;48.892;9.544;2023-07-29T01:19:05;17.10;99.90
1468;DHT22;727;48.892;9.544;2023-07-29T01:21:33;17.10;99.90
1468;DHT22;727;48.892;9.544;2023-07-29T01:24:03;17.10;99.90
1468;DHT22;727;48.892;9.544;2023-07-29T01:26:30;17.20;99.90
1468;DHT22;727;48.892;9.544;2023-07-29T01:28:57;17.10;99.90
1468;DHT22;727;48.892;9.544;2023-07-29T01:31:30;17.20;99.90
1468;DHT22;727;48.892;9.544;2023-07-29T01:34:05;17.20;99.90
1468;DHT22;727;48.892;9.544;2023-07-29T01:36:33;17.20;99.90
1468;DHT22;727;48.892;9.544;2023-07-29T01:39:05;17.10;99.90
1468;DHT22;727;48.892;9.544;2023-07-29T01:41:33;17.20;99.90
1468;DHT22;727;48.892;9.544;2023-07-29T01:44:00;17.10;99.90
1468;DHT22;727;48.892;9.544;2023-07-29T01:46:28;17.10;99.90
1468;DHT22;727;48.892;9.544;2023-07-29T01:48:54;17.10;99.90
1468;DHT22;727;48.892;9.544;2023-07-29T01:51:21;17.10;99.90
1468;DHT22;727;48.892;9.544;2023-07-29T01:53:48;17.10;99.90
1468;DHT22;727;48.892;9.544;2023-07-29T01:56:16;17.10;99.90
1468;DHT22;727;48.892;9.544;2023-07-29T01:58:43;17.00;99.90
1468;DHT22;727;48.892;9.544;2023-07-29T02:01:10;17.10;99.90
1468;DHT22;727;48.892;9.544;2023-07-29T02:03:37;17.10;99.90
1468;DHT22;727;48.892;9.544;2023-07-29T02:06:03;17.10;99.90
1468;DHT22;727;48.892;9.544;2023-07-29T02:08:30;17.10;99.90
1468;DHT22;727;48.892;9.544;2023-07-29T02:10:57;17.00;99.90
1468;DHT22;727;48.892;9.544;2023-07-29T02:13:25;17.00;99.90
1468;DHT22;727;48.892;9.544;2023-07-29T02:15:52;17.10;99.90
1468;DHT22;727;48.892;9.544;2023-07-29T02:18:18;17.00;99.90
1468;DHT22;727;48.892;9.544;2023-07-29T02:20:45;17.00;99.90
1468;DHT22;727;48.892;9.544;2023-07-29T02:23:15;17.10;99.90
1468;DHT22;727;48.892;9.544;2023-07-29T02:25:42;17.00;99.90
1468;DHT22;727;48.892;9.544;2023-07-29T02:28:09;17.00;99.90
1468;DHT22;727;48.892;9.544;2023-07-29T02:30:41;17.10;99.90
1468;DHT22;727;48.892;9.544;2023-07-29T02:33:10;17.10;99.90
1468;DHT22;727;48.892;9.544;2023-07-29T02:35:37;17.10;99.90
1468;DHT22;727;48.892;9.544;2023-07-29T02:38:04;17.00;99.90
1468;DHT22;727;48.892;9.544;2023-07-29T02:40:32;17.00;99.90
1468;DHT22;727;48.892;9.544;2023-07-29T02:42:58;17.00;99.90
1468;DHT22;727;48.892;9.544;2023-07-29T02:45:25;17.00;99.90
1468;DHT22;727;48.892;9.544;2023-07-29T02:47:53;17.00;99.90
1468;DHT22;727;48.892;9.544;2023-07-29T02:50:20;17.00;99.90
1468;DHT22;727;48.892;9.544;2023-07-29T02:52:47;17.00;99.90
1468;DHT22;727;48.892;9.544;2023-07-29T02:55:14;16.90;99.90
1468;DHT22;727;48.892;9.544;2023-07-29T02:57:40;16.80;99.90
1468;DHT22;727;48.892;9.544;2023-07-29T03:00:08;16.80;99.90
1468;DHT22;727;48.892;9.544;2023-07-29T03:02:36;16.80;99.90
1468;DHT22;727;48.892;9.544;2023-07-29T03:05:05;16.70;99.90
1468;DHT22;727;48.892;9.544;2023-07-29T03:07:31;16.70;99.90
1468;DHT22;727;48.892;9.544;2023-07-29T03:09:58;16.70;99.90
1468;DHT22;727;48.892;9.544;2023-07-29T03:12:25;16.70;99.90
1468;DHT22;727;48.892;9.544;2023-07-29T03:14:52;16.70;99.90
1468;DHT22;727;48.892;9.544;2023-07-29T03:17:18;16.60;99.90
1468;DHT22;727;48.892;9.544;2023-07-29T03:19:45;16.60;99.90
1468;DHT22;727;48.892;9.544;2023-07-29T03:22:13;16.60;99.90
1468;DHT22;727;48.892;9.544;2023-07-29T03:24:40;16.60;99.90
1468;DHT22;727;48.892;9.544;2023-07-29T03:27:08;16.60;99.90
1468;DHT22;727;48.892;9.544;2023-07-29T03:29:35;16.50;99.90
1468;DHT22;727;48.892;9.544;2023-07-29T03:32:02;16.50;99.90
1468;DHT22;727;48.892;9.544;2023-07-29T03:34:28;16.40;99.90
1468;DHT22;727;48.892;9.544;2023-07-29T03:36:55;16.40;99.90
1468;DHT22;727;48.892;9.544;2023-07-29T03:39:23;16.30;99.90
1468;DHT22;727;48.892;9.544;2023-07-29T03:41:50;16.30;99.90
1468;DHT22;727;48.892;9.544;2023-07-29T03:44:17;16.30;99.90
1468;DHT22;727;48.892;9.544;2023-07-29T03:46:44;16.30;99.90
1468;DHT22;727;48.892;9.544;2023-07-29T03:49:10;16.20;99.90
1468;DHT22;727;48.892;9.544;2023-07-29T03:51:37;16.20;99.90
1468;DHT22;727;48.892;9.544;2023-07-29T03:54:04;16.20;99.90
1468;DHT22;727;48.892;9.544;2023-07-29T03:56:33;16.20;99.90
1468;DHT22;727;48.892;9.544;2023-07-29T03:59:04;16.20;99.90
1468;DHT22;727;48.892;9.544;2023-07-29T04:01:32;16.20;99.90
1468;DHT22;727;48.892;9.544;2023-07-29T04:03:59;16.30;99.90
1468;DHT22;727;48.892;9.544;2023-07-29T04:06:25;16.30;99.90
1468;DHT22;727;48.892;9.544;2023-07-29T04:08:53;16.40;99.90
1468;DHT22;727;48.892;9.544;2023-07-29T04:11:20;16.40;99.90
1468;DHT22;727;48.892;9.544;2023-07-29T04:13:48;16.40;99.90
1468;DHT22;727;48.892;9.544;2023-07-29T04:16:17;16.50;99.90
1468;DHT22;727;48.892;9.544;2023-07-29T04:18:44;16.50;99.90
1468;DHT22;727;48.892;9.544;2023-07-29T04:21:11;16.60;99.90
1468;DHT22;727;48.892;9.544;2023-07-29T04:23:38;16.60;99.90
1468;DHT22;727;48.892;9.544;2023-07-29T04:26:05;16.60;99.90
1468;DHT22;727;48.892;9.544;2023-07-29T04:28:32;16.60;99.90
1468;DHT22;727;48.892;9.544;2023-07-29T04:31:00;16.70;99.90
1468;DHT22;727;48.892;9.544;2023-07-29T04:33:28;16.60;99.90
1468;DHT22;727;48.892;9.544;2023-07-29T04:35:55;16.70;99.90
1468;DHT22;727;48.892;9.544;2023-07-29T04:38:30;16.70;99.90
1468;DHT22;727;48.892;9.544;2023-07-29T04:40:58;16.70;99.90
1468;DHT22;727;48.892;9.544;2023-07-29T04:43:26;16.70;99.90
1468;DHT22;727;48.892;9.544;2023-07-29T04:45:53;16.70;99.90
1468;DHT22;727;48.892;9.544;2023-07-29T04:48:21;16.70;99.90
1468;DHT22;727;48.892;9.544;2023-07-29T04:50:48;16.70;99.90
1468;DHT22;727;48.892;9.544;2023-07-29T04:53:15;16.70;99.90
1468;DHT22;727;48.892;9.544;2023-07-29T04:55:42;16.70;99.90
1468;DHT22;727;48.892;9.544;2023-07-29T04:58:09;16.70;99.90
1468;DHT22;727;48.892;9.544;2023-07-29T05:00:35;16.80;99.90
1468;DHT22;727;48.892;9.544;2023-07-29T05:03:02;16.80;99.90
1468;DHT22;727;48.892;9.544;2023-07-29T05:05:30;16.80;99.90
1468;DHT22;727;48.892;9.544;2023-07-29T05:07:57;16.80;99.90
1468;DHT22;727;48.892;9.544;2023-07-29T05:10:24;16.80;99.90
1468;DHT22;727;48.892;9.544;2023-07-29T05:12:51;16.80;99.90
1468;DHT22;727;48.892;9.544;2023-07-29T05:15:17;16.80;99.90
1468;DHT22;727;48.892;9.544;2023-07-29T05:17:45;16.80;99.90
1468;DHT22;727;48.892;9.544;2023-07-29T05:20:12;16.80;99.90
1468;DHT22;727;48.892;9.544;2023-07-29T05:22:42;16.80;99.90
1468;DHT22;727;48.892;9.544;2023-07-29T05:25:08;16.80;99.90
1468;DHT22;727;48.892;9.544;2023-07-29T05:27:35;16.80;99.90
1468;DHT22;727;48.892;9.544;2023-07-29T05:30:02;16.80;99.90
1468;DHT22;727;48.892;9.544;2023-07-29T05:32:29;16.80;99.90
1468;DHT22;727;48.892;9.544;2023-07-29T05:34:56;16.80;99.90
1468;DHT22;727;48.892;9.544;2023-07-29T05:37:23;16.90;99.90
1468;DHT22;727;48.892;9.544;2023-07-29T05:39:51;16.90;99.90
1468;DHT22;727;48.892;9.544;2023-07-29T05:42:18;17.00;99.90
1468;DHT22;727;48.892;9.544;2023-07-29T05:44:45;17.10;99.90
1468;DHT22;727;48.892;9.544;2023-07-29T05:47:12;17.20;99.90
1468;DHT22;727;48.892;9.544;2023-07-29T05:49:38;17.30;99.90
1468;DHT22;727;48.892;9.544;2023-07-29T05:52:06;17.50;99.90
1468;DHT22;727;48.892;9.544;2023-07-29T05:54:33;17.60;99.90
1468;DHT22;727;48.892;9.544;2023-07-29T05:57:01;17.70;99.90
1468;DHT22;727;48.892;9.544;2023-07-29T05:59:28;17.80;99.90
1468;DHT22;727;48.892;9.544;2023-07-29T06:01:55;17.90;99.90
1468;DHT22;727;48.892;9.544;2023-07-29T06:04:21;18.00;99.90
1468;DHT22;727;48.892;9.544;2023-07-29T06:06:48;18.10;99.90
1468;DHT22;727;48.892;9.544;2023-07-29T06:09:15;18.20;99.90
1468;DHT22;727;48.892;9.544;2023-07-29T06:11:42;18.60;99.90
1468;DHT22;727;48.892;9.544;2023-07-29T06:14:10;18.90;99.90
1468;DHT22;727;48.892;9.544;2023-07-29T06:16:37;19.00;99.90
1468;DHT22;727;48.892;9.544;2023-07-29T06:19:03;19.50;99.90
1468;DHT22;727;48.892;9.544;2023-07-29T06:21:30;19.80;99.90
1468;DHT22;727;48.892;9.544;2023-07-29T06:23:57;20.00;99.90
1468;DHT22;727;48.892;9.544;2023-07-29T06:26:24;20.30;99.90
1468;DHT22;727;48.892;9.544;2023-07-29T06:28:51;20.50;99.90
1468;DHT22;727;48.892;9.544;2023-07-29T06:31:19;20.60;99.90
1468;DHT22;727;48.892;9.544;2023-07-29T06:33:46;20.60;99.90
1468;DHT22;727;48.892;9.544;2023-07-29T06:36:12;20.50;99.90
1468;DHT22;727;48.892;9.544;2023-07-29T06:38:39;20.50;99.90
1468;DHT22;727;48.892;9.544;2023-07-29T06:41:07;20.50;99.90
1468;DHT22;727;48.892;9.544;2023-07-29T06:43:34;20.50;99.90
1468;DHT22;727;48.892;9.544;2023-07-29T06:46:00;20.40;99.90
1468;DHT22;727;48.892;9.544;2023-07-29T06:48:28;20.30;99.90
1468;DHT22;727;48.892;9.544;2023-07-29T06:50:55;20.30;99.90
1468;DHT22;727;48.892;9.544;2023-07-29T06:53:26;20.20;99.90
1468;DHT22;727;48.892;9.544;2023-07-29T06:55:53;20.20;99.90
1468;DHT22;727;48.892;9.544;2023-07-29T06:58:19;20.30;99.90
1468;DHT22;727;48.892;9.544;2023-07-29T07:00:46;20.50;99.90
1468;DHT22;727;48.892;9.544;2023-07-29T07:03:13;20.60;99.90
1468;DHT22;727;48.892;9.544;2023-07-29T07:05:41;20.50;99.90
1468;DHT22;727;48.892;9.544;2023-07-29T07:08:08;20.40;99.90
1468;DHT22;727;48.892;9.544;2023-07-29T07:10:35;20.30;99.90
1468;DHT22;727;48.892;9.544;2023-07-29T07:13:01;20.20;99.90
1468;DHT22;727;48.892;9.544;2023-07-29T07:15:28;20.10;99.90
1468;DHT22;727;48.892;9.544;2023-07-29T07:17:55;20.00;99.90
1468;DHT22;727;48.892;9.544;2023-07-29T07:20:22;20.00;99.90
1468;DHT22;727;48.892;9.544;2023-07-29T07:22:50;19.90;99.90
1468;DHT22;727;48.892;9.544;2023-07-29T07:25:17;19.70;99.90
1468;DHT22;727;48.892;9.544;2023-07-29T07:27:44;19.60;99.90
1468;DHT22;727;48.892;9.544;2023-07-29T07:30:11;19.50;99.90
1468;DHT22;727;48.892;9.544;2023-07-29T07:32:38;19.40;99.90
1468;DHT22;727;48.892;9.544;2023-07-29T07:35:05;19.30;99.90
1468;DHT22;727;48.892;9.544;2023-07-29T07:37:32;19.20;99.90
1468;DHT22;727;48.892;9.544;2023-07-29T07:40:00;19.10;99.90
1468;DHT22;727;48.892;9.544;2023-07-29T07:42:26;19.00;99.90
1468;DHT22;727;48.892;9.544;2023-07-29T07:44:53;19.00;99.90
1468;DHT22;727;48.892;9.544;2023-07-29T07:47:20;19.00;99.90
1468;DHT22;727;48.892;9.544;2023-07-29T07:49:47;19.00;99.90
1468;DHT22;727;48.892;9.544;2023-07-29T07:52:14;19.00;99.90
1468;DHT22;727;48.892;9.544;2023-07-29T07:54:41;19.10;99.90
1468;DHT22;727;48.892;9.544;2023-07-29T07:57:09;19.20;99.90
1468;DHT22;727;48.892;9.544;2023-07-29T07:59:36;19.40;99.90
1468;DHT22;727;48.892;9.544;2023-07-29T08:02:03;19.50;99.90
1468;DHT22;727;48.892;9.544;2023-07-29T08:04:30;19.60;99.90
1468;DHT22;727;48.892;9.544;2023-07-29T08:06:56;19.70;99.90
1468;DHT22;727;48.892;9.544;2023-07-29T08:09:23;19.80;99.90
1468;DHT22;727;48.892;9.544;2023-07-29T08:11:50;19.80;99.90
1468;DHT22;727;48.892;9.544;2023-07-29T08:14:18;20.00;99.90
1468;DHT22;727;48.892;9.544;2023-07-29T08:16:45;20.10;99.90
1468;DHT22;727;48.892;9.544;2023-07-29T08:19:11;20.20;99.90
1468;DHT22;727;48.892;9.544;2023-07-29T08:21:38;20.20;99.90
1468;DHT22;727;48.892;9.544;2023-07-29T08:24:05;20.40;99.90
1468;DHT22;727;48.892;9.544;2023-07-29T08:26:36;20.60;99.90
1468;DHT22;727;48.892;9.544;2023-07-29T08:29:06;20.70;99.90
1468;DHT22;727;48.892;9.544;2023-07-29T08:31:34;20.80;99.90
1468;DHT22;727;48.892;9.544;2023-07-29T08:34:01;20.80;99.90
1468;DHT22;727;48.892;9.544;2023-07-29T08:36:28;20.90;99.90
1468;DHT22;727;48.892;9.544;2023-07-29T08:38:54;20.90;99.90
1468;DHT22;727;48.892;9.544;2023-07-29T08:41:29;21.10;99.90
1468;DHT22;727;48.892;9.544;2023-07-29T08:44:02;21.70;99.90
1468;DHT22;727;48.892;9.544;2023-07-29T08:46:31;22.40;99.90
1468;DHT22;727;48.892;9.544;2023-07-29T08:49:01;22.80;99.90
1468;DHT22;727;48.892;9.544;2023-07-29T08:51:29;23.00;99.90
1468;DHT22;727;48.892;9.544;2023-07-29T08:53:58;23.30;99.90
1468;DHT22;727;48.892;9.544;2023-07-29T08:56:25;23.40;99.90
1468;DHT22;727;48.892;9.544;2023-07-29T08:58:53;23.50;99.90
1468;DHT22;727;48.892;9.544;2023-07-29T09:01:21;23.50;99.90
1468;DHT22;727;48.892;9.544;2023-07-29T09:03:47;23.60;99.90
1468;DHT22;727;48.892;9.544;2023-07-29T09:06:16;24.20;99.90
1468;DHT22;727;48.892;9.544;2023-07-29T09:08:44;24.60;99.90
1468;DHT22;727;48.892;9.544;2023-07-29T09:11:13;24.80;99.90
1468;DHT22;727;48.892;9.544;2023-07-29T09:13:42;25.00;99.90
1468;DHT22;727;48.892;9.544;2023-07-29T09:16:09;25.00;99.90
1468;DHT22;727;48.892;9.544;2023-07-29T09:18:36;24.80;99.90
1468;DHT22;727;48.892;9.544;2023-07-29T09:21:03;24.60;99.90
1468;DHT22;727;48.892;9.544;2023-07-29T09:23:40;24.60;99.90
1468;DHT22;727;48.892;9.544;2023-07-29T09:26:07;24.90;99.90
1468;DHT22;727;48.892;9.544;2023-07-29T09:28:36;25.40;99.90
1468;DHT22;727;48.892;9.544;2023-07-29T09:31:03;26.00;99.90
1468;DHT22;727;48.892;9.544;2023-07-29T09:33:32;26.20;99.90
1468;DHT22;727;48.892;9.544;2023-07-29T09:36:01;26.10;99.90
1468;DHT22;727;48.892;9.544;2023-07-29T09:38:28;26.20;99.90
1468;DHT22;727;48.892;9.544;2023-07-29T09:40:57;26.50;99.90
1468;DHT22;727;48.892;9.544;2023-07-29T09:43:25;26.80;99.40
1468;DHT22;727;48.892;9.544;2023-07-29T09:45:53;27.00;97.30
1468;DHT22;727;48.892;9.544;2023-07-29T09:48:22;26.70;98.10
1468;DHT22;727;48.892;9.544;2023-07-29T09:50:50;26.90;97.90
1468;DHT22;727;48.892;9.544;2023-07-29T09:53:19;27.30;97.80
1468;DHT22;727;48.892;9.544;2023-07-29T09:55:47;27.50;96.80
1468;DHT22;727;48.892;9.544;2023-07-29T09:58:26;27.60;96.60
1468;DHT22;727;48.892;9.544;2023-07-29T10:00:57;27.70;96.20
1468;DHT22;727;48.892;9.544;2023-07-29T10:03:24;27.70;96.60
1468;DHT22;727;48.892;9.544;2023-07-29T10:06:06;27.70;96.50
1468;DHT22;727;48.892;9.544;2023-07-29T10:08:34;27.70;96.80
1468;DHT22;727;48.892;9.544;2023-07-29T10:11:11;28.00;96.80
1468;DHT22;727;48.892;9.544;2023-07-29T10:16:47;26.70;97.90
1468;DHT22;727;48.892;9.544;2023-07-29T10:19:16;26.70;97.60
1468;DHT22;727;48.892;9.544;2023-07-29T10:21:49;26.80;97.80
1468;DHT22;727;48.892;9.544;2023-07-29T10:24:32;26.80;98.00
1468;DHT22;727;48.892;9.544;2023-07-29T10:27:12;26.40;97.50
1468;DHT22;727;48.892;9.544;2023-07-29T10:29:42;25.70;98.60
1468;DHT22;727;48.892;9.544;2023-07-29T10:32:19;24.30;99.90
1468;DHT22;727;48.892;9.544;2023-07-29T10:34:55;22.60;99.90
1468;DHT22;727;48.892;9.544;2023-07-29T10:37:24;21.50;99.90
1468;DHT22;727;48.892;9.544;2023-07-29T10:39:54;20.90;99.90
1468;DHT22;727;48.892;9.544;2023-07-29T10:42:22;20.60;99.90
1468;DHT22;727;48.892;9.544;2023-07-29T10:44:50;20.20;99.90
1468;DHT22;727;48.892;9.544;2023-07-29T10:47:22;20.10;99.90
1468;DHT22;727;48.892;9.544;2023-07-29T10:49:51;20.00;99.90
1468;DHT22;727;48.892;9.544;2023-07-29T10:52:31;20.20;99.90
1468;DHT22;727;48.892;9.544;2023-07-29T10:55:23;20.10;99.90
1468;DHT22;727;48.892;9.544;2023-07-29T10:57:50;20.20;99.90
1468;DHT22;727;48.892;9.544;2023-07-29T11:00:19;20.40;99.90
1468;DHT22;727;48.892;9.544;2023-07-29T11:02:58;20.40;99.90
1468;DHT22;727;48.892;9.544;2023-07-29T11:05:26;20.60;99.90
1468;DHT22;727;48.892;9.544;2023-07-29T11:07:53;20.70;99.90
1468;DHT22;727;48.892;9.544;2023-07-29T11:10:22;20.90;99.90
1468;DHT22;727;48.892;9.544;2023-07-29T11:12:54;21.20;99.90
1468;DHT22;727;48.892;9.544;2023-07-29T11:15:25;21.90;99.90
1468;DHT22;727;48.892;9.544;2023-07-29T11:17:54;22.80;99.90
1468;DHT22;727;48.892;9.544;2023-07-29T11:20:23;23.70;99.90
1468;DHT22;727;48.892;9.544;2023-07-29T11:22:50;24.10;99.90
1468;DHT22;727;48.892;9.544;2023-07-29T11:25:18;24.70;99.90
1468;DHT22;727;48.892;9.544;2023-07-29T11:27:45;24.80;99.90
1468;DHT22;727;48.892;9.544;2023-07-29T11:30:14;25.20;99.90
1468;DHT22;727;48.892;9.544;2023-07-29T11:32:42;25.40;99.90
1468;DHT22;727;48.892;9.544;2023-07-29T11:35:13;25.70;99.90
1468;DHT22;727;48.892;9.544;2023-07-29T11:37:53;26.00;99.90
1468;DHT22;727;48.892;9.544;2023-07-29T11:40:34;26.00;99.40
1468;DHT22;727;48.892;9.544;2023-07-29T11:43:02;26.10;99.20
1468;DHT22;727;48.892;9.544;2023-07-29T11:45:29;26.20;99.00
1468;DHT22;727;48.892;9.544;2023-07-29T11:47:56;26.10;99.10
1468;DHT22;727;48.892;9.544;2023-07-29T11:50:35;26.20;99.90
1468;DHT22;727;48.892;9.544;2023-07-29T11:53:03;26.50;99.10
1468;DHT22;727;48.892;9.544;2023-07-29T11:55:57;26.80;97.90
1468;DHT22;727;48.892;9.544;2023-07-29T12:01:01;26.90;98.20
1468;DHT22;727;48.892;9.544;2023-07-29T12:03:28;27.00;98.40
1468;DHT22;727;48.892;9.544;2023-07-29T12:05:57;27.20;96.50
1468;DHT22;727;48.892;9.544;2023-07-29T12:08:24;27.20;96.50
1468;DHT22;727;48.892;9.544;2023-07-29T12:10:51;27.00;96.10
1468;DHT22;727;48.892;9.544;2023-07-29T12:13:18;27.00;95.90
1468;DHT22;727;48.892;9.544;2023-07-29T12:15:45;27.10;95.20
1468;DHT22;727;48.892;9.544;2023-07-29T12:18:12;27.50;95.50
1468;DHT22;727;48.892;9.544;2023-07-29T12:20:40;27.60;93.50
1468;DHT22;727;48.892;9.544;2023-07-29T12:23:09;27.60;94.20
1468;DHT22;727;48.892;9.544;2023-07-29T12:25:35;27.90;94.30
1468;DHT22;727;48.892;9.544;2023-07-29T12:28:03;28.20;93.70
1468;DHT22;727;48.892;9.544;2023-07-29T12:30:32;28.10;92.20
1468;DHT22;727;48.892;9.544;2023-07-29T12:32:59;28.10;92.20
1468;DHT22;727;48.892;9.544;2023-07-29T12:35:35;28.00;92.80
1468;DHT22;727;48.892;9.544;2023-07-29T12:38:01;28.00;92.20
1468;DHT22;727;48.892;9.544;2023-07-29T12:40:30;28.00;92.70
1468;DHT22;727;48.892;9.544;2023-07-29T12:42:56;28.10;92.00
1468;DHT22;727;48.892;9.544;2023-07-29T12:45:23;28.00;92.40
1468;DHT22;727;48.892;9.544;2023-07-29T12:47:52;28.10;91.80
1468;DHT22;727;48.892;9.544;2023-07-29T12:50:19;28.10;91.60
1468;DHT22;727;48.892;9.544;2023-07-29T12:52:46;28.10;92.30
1468;DHT22;727;48.892;9.544;2023-07-29T12:55:13;28.10;92.10
1468;DHT22;727;48.892;9.544;2023-07-29T12:57:42;28.20;92.30
1468;DHT22;727;48.892;9.544;2023-07-29T13:00:10;28.60;91.80
1468;DHT22;727;48.892;9.544;2023-07-29T13:02:37;28.70;89.50
1468;DHT22;727;48.892;9.544;2023-07-29T13:05:04;28.80;87.90
1468;DHT22;727;48.892;9.544;2023-07-29T13:07:32;29.00;90.90
1468;DHT22;727;48.892;9.544;2023-07-29T13:09:58;29.30;88.40
1468;DHT22;727;48.892;9.544;2023-07-29T13:12:25;29.40;85.40
1468;DHT22;727;48.892;9.544;2023-07-29T13:14:53;29.50;86.20
1468;DHT22;727;48.892;9.544;2023-07-29T13:17:21;29.50;86.30
1468;DHT22;727;48.892;9.544;2023-07-29T13:19:48;29.30;84.00
1468;DHT22;727;48.892;9.544;2023-07-29T13:22:15;28.80;85.30
1468;DHT22;727;48.892;9.544;2023-07-29T13:24:42;28.80;86.20
1468;DHT22;727;48.892;9.544;2023-07-29T13:27:09;28.90;82.50
1468;DHT22;727;48.892;9.544;2023-07-29T13:29:35;29.00;82.50
1468;DHT22;727;48.892;9.544;2023-07-29T13:32:05;29.40;78.90
1468;DHT22;727;48.892;9.544;2023-07-29T13:34:32;29.30;74.80
1468;DHT22;727;48.892;9.544;2023-07-29T13:37:00;29.00;75.30
1468;DHT22;727;48.892;9.544;2023-07-29T13:39:26;28.60;78.00
1468;DHT22;727;48.892;9.544;2023-07-29T13:41:54;28.70;77.90
1468;DHT22;727;48.892;9.544;2023-07-29T13:44:21;28.50;79.50
1468;DHT22;727;48.892;9.544;2023-07-29T13:46:48;28.40;81.70
1468;DHT22;727;48.892;9.544;2023-07-29T13:49:16;28.50;81.50
1468;DHT22;727;48.892;9.544;2023-07-29T13:51:43;28.50;82.00
1468;DHT22;727;48.892;9.544;2023-07-29T13:54:10;28.50;81.70
1468;DHT22;727;48.892;9.544;2023-07-29T13:56:37;28.30;81.00
1468;DHT22;727;48.892;9.544;2023-07-29T13:59:03;28.20;81.50
1468;DHT22;727;48.892;9.544;2023-07-29T14:01:30;28.20;79.90
1468;DHT22;727;48.892;9.544;2023-07-29T14:03:57;28.30;80.00
1468;DHT22;727;48.892;9.544;2023-07-29T14:06:25;28.50;83.50
1468;DHT22;727;48.892;9.544;2023-07-29T14:08:52;28.40;79.40
1468;DHT22;727;48.892;9.544;2023-07-29T14:11:19;28.30;80.00
1468;DHT22;727;48.892;9.544;2023-07-29T14:13:45;28.40;81.30
1468;DHT22;727;48.892;9.544;2023-07-29T14:16:12;28.50;81.90
1468;DHT22;727;48.892;9.544;2023-07-29T14:18:39;28.40;80.20
1468;DHT22;727;48.892;9.544;2023-07-29T14:21:06;28.20;78.50
1468;DHT22;727;48.892;9.544;2023-07-29T14:23:35;28.10;78.90
1468;DHT22;727;48.892;9.544;2023-07-29T14:26:02;28.10;80.60
1468;DHT22;727;48.892;9.544;2023-07-29T14:28:28;28.20;82.20
1468;DHT22;727;48.892;9.544;2023-07-29T14:30:56;28.40;80.70
1468;DHT22;727;48.892;9.544;2023-07-29T14:33:23;28.60;80.80
1468;DHT22;727;48.892;9.544;2023-07-29T14:35:49;28.70;79.90
1468;DHT22;727;48.892;9.544;2023-07-29T14:38:16;28.60;79.40
1468;DHT22;727;48.892;9.544;2023-07-29T14:40:48;28.60;78.60
1468;DHT22;727;48.892;9.544;2023-07-29T14:43:16;28.60;79.90
1468;DHT22;727;48.892;9.544;2023-07-29T14:45:43;28.40;79.00
1468;DHT22;727;48.892;9.544;2023-07-29T14:48:09;28.10;81.80
1468;DHT22;727;48.892;9.544;2023-07-29T14:50:37;27.90;81.30
1468;DHT22;727;48.892;9.544;2023-07-29T14:53:03;27.70;85.40
1468;DHT22;727;48.892;9.544;2023-07-29T14:55:30;27.60;81.60
1468;DHT22;727;48.892;9.544;2023-07-29T14:57:58;27.50;82.00
1468;DHT22;727;48.892;9.544;2023-07-29T15:00:25;27.50;82.60
1468;DHT22;727;48.892;9.544;2023-07-29T15:02:52;27.60;82.90
1468;DHT22;727;48.892;9.544;2023-07-29T15:05:19;27.60;82.50
1468;DHT22;727;48.892;9.544;2023-07-29T15:07:46;27.40;80.30
1468;DHT22;727;48.892;9.544;2023-07-29T15:10:14;27.30;82.20
1468;DHT22;727;48.892;9.544;2023-07-29T15:12:42;27.40;82.30
1468;DHT22;727;48.892;9.544;2023-07-29T15:15:11;27.50;81.20
1468;DHT22;727;48.892;9.544;2023-07-29T15:17:38;27.60;80.40
1468;DHT22;727;48.892;9.544;2023-07-29T15:20:05;27.70;81.00
1468;DHT22;727;48.892;9.544;2023-07-29T15:22:33;27.70;80.10
1468;DHT22;727;48.892;9.544;2023-07-29T15:25:00;27.40;79.20
1468;DHT22;727;48.892;9.544;2023-07-29T15:27:26;27.30;80.80
1468;DHT22;727;48.892;9.544;2023-07-29T15:29:53;27.30;82.70
1468;DHT22;727;48.892;9.544;2023-07-29T15:32:22;27.60;83.00
1468;DHT22;727;48.892;9.544;2023-07-29T15:34:49;27.70;80.90
1468;DHT22;727;48.892;9.544;2023-07-29T15:37:16;27.80;81.10
1468;DHT22;727;48.892;9.544;2023-07-29T15:39:42;27.60;81.90
1468;DHT22;727;48.892;9.544;2023-07-29T15:42:09;27.70;80.70
1468;DHT22;727;48.892;9.544;2023-07-29T15:44:36;27.60;84.10
1468;DHT22;727;48.892;9.544;2023-07-29T15:47:04;27.50;81.30
1468;DHT22;727;48.892;9.544;2023-07-29T15:49:32;27.50;81.20
1468;DHT22;727;48.892;9.544;2023-07-29T15:51:58;27.40;80.80
1468;DHT22;727;48.892;9.544;2023-07-29T15:54:25;27.40;82.30
1468;DHT22;727;48.892;9.544;2023-07-29T15:56:52;27.40;81.30
1468;DHT22;727;48.892;9.544;2023-07-29T15:59:19;27.50;81.20
1468;DHT22;727;48.892;9.544;2023-07-29T16:01:46;27.70;79.50
1468;DHT22;727;48.892;9.544;2023-07-29T16:04:12;27.60;80.40
1468;DHT22;727;48.892;9.544;2023-07-29T16:06:40;27.50;80.70
1468;DHT22;727;48.892;9.544;2023-07-29T16:09:07;27.50;81.20
1468;DHT22;727;48.892;9.544;2023-07-29T16:11:34;27.50;81.60
1468;DHT22;727;48.892;9.544;2023-07-29T16:14:01;27.30;81.70
1468;DHT22;727;48.892;9.544;2023-07-29T16:16:28;27.20;84.60
1468;DHT22;727;48.892;9.544;2023-07-29T16:18:55;27.20;84.80
1468;DHT22;727;48.892;9.544;2023-07-29T16:21:22;27.10;84.30
1468;DHT22;727;48.892;9.544;2023-07-29T16:23:50;27.00;86.80
1468;DHT22;727;48.892;9.544;2023-07-29T16:26:18;26.80;90.60
1468;DHT22;727;48.892;9.544;2023-07-29T16:28:45;26.70;86.90